Time;durP1;ratioP1;P1;durP2;ratioP2;P2;SDS_P1;SDS_P2;PMS_P1;PMS_P2;Temp;Humidity;BMP_temperature;BMP_pressure;BME280_temperature;BME280_humidity;BME280_pressure;Samples;Min_cycle;Max_cycle;Signal;HPM_P1;HPM_P2
2024/03/12 05:00:23;;;;;;;1.35;1.35;;;6.00;99.90;;;;;;5877962;23;20790;-70
2024/03/12 05:02:50;;;;;;;2.78;2.58;;;6.00;99.90;;;;;;4917125;29;20246;-70
2024/03/12 05:05:19;;;;;;;2.03;2.03;;;6.00;99.90;;;;;;4918960;29;20705;-71
2024/03/12 05:07:45;;;;;;;2.85;2.65;;;6.00;99.90;;;;;;4909778;29;20605;-71
2024/03/12 05:10:12;;;;;;;2.20;2.10;;;6.00;99.90;;;;;;4919668;29;20331;-70
2024/03/12 05:12:39;;;;;;;2.47;2.30;;;6.00;99.90;;;;;;4924499;29;20236;-71
2024/03/12 05:15:08;;;;;;;2.60;2.40;;;5.90;99.90;;;;;;4911100;29;20258;-72
2024/03/12 05:17:36;;;;;;;2.58;2.38;;;5.90;99.90;;;;;;4921215;29;20216;-71
2024/03/12 05:20:06;;;;;;;2.83;2.63;;;5.90;99.90;;;;;;4926549;29;20287;-71
2024/03/12 05:22:32;;;;;;;2.28;2.17;;;5.90;99.90;;;;;;4918792;29;20206;-71
2024/03/12 05:24:59;;;;;;;2.83;2.67;;;5.90;99.90;;;;;;4932300;29;20564;-72
2024/03/12 05:27:35;;;;;;;2.88;1.50;;;5.90;99.90;;;;;;4920611;29;20630;-72
2024/03/12 05:30:10;;;;;;;3.03;2.83;;;5.90;99.90;;;;;;4916033;29;20679;-74
2024/03/12 05:32:40;;;;;;;4.03;2.92;;;6.00;99.90;;;;;;4927021;29;20212;-73
2024/03/12 05:35:17;;;;;;;2.20;1.95;;;6.00;99.90;;;;;;4909932;29;20296;-71
2024/03/12 05:38:01;;;;;;;2.85;2.63;;;5.90;99.90;;;;;;4912060;29;20212;-73
2024/03/12 05:40:39;;;;;;;2.85;2.65;;;5.90;99.90;;;;;;4927487;29;20595;-72
2024/03/12 05:48:37;;;;;;;2.55;2.45;;;6.00;99.90;;;;;;4909777;29;20217;-72
2024/03/12 05:51:04;;;;;;;3.10;2.90;;;6.00;99.90;;;;;;4915610;29;20225;-73
2024/03/12 05:53:32;;;;;;;3.25;2.83;;;6.00;99.90;;;;;;4925590;29;20216;-72
2024/03/12 05:55:58;;;;;;;3.90;2.95;;;6.10;99.90;;;;;;4931408;29;20205;-73
2024/03/12 05:58:26;;;;;;;3.47;3.20;;;6.10;99.90;;;;;;4915778;29;20212;-73
2024/03/12 06:00:52;;;;;;;3.83;3.63;;;6.10;99.90;;;;;;4924193;29;20329;-73
2024/03/12 06:03:20;;;;;;;2.38;2.30;;;6.20;99.90;;;;;;4916610;29;20212;-74
2024/03/12 06:05:49;;;;;;;3.60;3.40;;;6.20;99.90;;;;;;4914687;29;20649;-72
2024/03/12 06:08:15;;;;;;;2.65;2.55;;;6.20;99.90;;;;;;4918521;29;20213;-72
2024/03/12 06:10:42;;;;;;;2.78;2.60;;;6.20;99.90;;;;;;4913520;29;20246;-73
2024/03/12 06:13:09;;;;;;;2.78;2.60;;;6.20;99.90;;;;;;4927310;29;20208;-73
2024/03/12 06:15:35;;;;;;;2.58;2.38;;;6.20;99.90;;;;;;4931785;29;20206;-73
2024/03/12 06:18:03;;;;;;;3.47;3.22;;;6.20;99.90;;;;;;4930267;29;20585;-74
2024/03/12 06:20:30;;;;;;;5.63;2.70;;;6.20;99.90;;;;;;4916985;29;20263;-75
2024/03/12 06:22:59;;;;;;;2.90;2.80;;;6.10;99.90;;;;;;4914056;29;20208;-72
2024/03/12 06:25:26;;;;;;;3.08;2.97;;;6.10;99.90;;;;;;4913337;29;20225;-72
2024/03/12 06:27:53;;;;;;;4.57;3.25;;;6.20;99.90;;;;;;4925551;29;20204;-72
2024/03/12 06:30:20;;;;;;;2.40;2.30;;;6.20;99.90;;;;;;4933298;29;20213;-73
2024/03/12 06:32:46;;;;;;;2.95;2.47;;;6.20;99.90;;;;;;4915235;29;20715;-71
2024/03/12 06:35:13;;;;;;;3.78;2.70;;;6.20;99.90;;;;;;4905468;29;20213;-73
2024/03/12 06:37:40;;;;;;;2.50;2.38;;;6.20;99.90;;;;;;4906836;29;20231;-72
2024/03/12 06:40:10;;;;;;;11.15;3.70;;;6.30;99.90;;;;;;4907505;29;20210;-73
2024/03/12 06:42:37;;;;;;;1.88;1.77;;;6.30;99.90;;;;;;4917529;29;20303;-73
2024/03/12 06:45:04;;;;;;;3.90;3.50;;;6.40;99.90;;;;;;4921009;29;20232;-72
2024/03/12 06:47:36;;;;;;;5.80;3.70;;;6.40;99.90;;;;;;4916138;29;20213;-72
2024/03/12 06:50:07;;;;;;;9.00;3.17;;;6.40;99.90;;;;;;4900981;29;20202;-73
2024/03/12 06:52:34;;;;;;;3.50;3.22;;;6.50;99.90;;;;;;4911098;29;20266;-72
2024/03/12 06:55:04;;;;;;;3.28;2.22;;;6.50;99.90;;;;;;4914370;29;20234;-71
2024/03/12 06:57:34;;;;;;;2.63;2.42;;;6.50;99.90;;;;;;4924319;29;20207;-72
2024/03/12 07:00:08;;;;;;;4.15;2.88;;;6.50;99.90;;;;;;4916615;29;20731;-73
2024/03/12 07:02:38;;;;;;;3.83;3.45;;;6.60;99.90;;;;;;4913622;29;20301;-72
2024/03/12 07:05:06;;;;;;;2.90;2.80;;;6.60;99.90;;;;;;4917519;29;20254;-72
2024/03/12 07:07:33;;;;;;;39.15;17.73;;;6.70;99.90;;;;;;4910594;29;20549;-72
2024/03/12 07:10:03;;;;;;;45.45;18.15;;;6.70;99.90;;;;;;4909004;29;20217;-74
2024/03/12 07:12:30;;;;;;;19.05;12.93;;;6.70;99.90;;;;;;4920850;29;20284;-72
2024/03/12 07:14:58;;;;;;;24.55;18.50;;;6.70;99.90;;;;;;4916380;29;20683;-73
2024/03/12 07:17:25;;;;;;;25.65;18.45;;;6.70;99.90;;;;;;4924022;29;20581;-73
2024/03/12 07:19:51;;;;;;;13.02;9.65;;;6.70;99.90;;;;;;4933597;29;20684;-73
2024/03/12 07:22:18;;;;;;;10.27;7.97;;;6.70;99.90;;;;;;4908389;29;20227;-73
2024/03/12 07:24:45;;;;;;;7.15;6.45;;;6.70;99.90;;;;;;4908737;29;20241;-73
2024/03/12 07:27:13;;;;;;;15.43;9.63;;;6.80;99.90;;;;;;4911645;29;20585;-73
2024/03/12 07:29:43;;;;;;;5.72;5.22;;;6.80;99.90;;;;;;4922677;29;20247;-73
2024/03/12 07:32:13;;;;;;;4.95;3.08;;;6.90;99.90;;;;;;4910368;29;20232;-73
2024/03/12 07:34:40;;;;;;;3.95;3.65;;;6.90;99.90;;;;;;4922962;29;20201;-73
2024/03/12 07:37:07;;;;;;;5.10;4.70;;;7.10;99.90;;;;;;4931905;29;20205;-71
2024/03/12 07:39:35;;;;;;;12.68;8.52;;;7.10;99.90;;;;;;4908402;29;20573;-72
2024/03/12 07:42:06;;;;;;;8.48;5.90;;;7.20;99.90;;;;;;4908257;29;20370;-72
2024/03/12 07:44:33;;;;;;;5.13;4.72;;;7.20;99.90;;;;;;4921611;29;20229;-72
2024/03/12 07:47:00;;;;;;;6.00;5.50;;;7.30;99.90;;;;;;4929071;29;20210;-72
2024/03/12 07:49:28;;;;;;;4.78;4.28;;;7.40;99.90;;;;;;4925612;29;20198;-73
2024/03/12 07:51:55;;;;;;;4.93;4.57;;;7.50;99.90;;;;;;4925695;29;20400;-73
2024/03/12 07:54:22;;;;;;;5.63;5.15;;;7.60;99.90;;;;;;4916500;29;20218;-73
2024/03/12 07:56:49;;;;;;;4.93;4.25;;;7.70;99.90;;;;;;4914595;29;20206;-73
2024/03/12 07:59:17;;;;;;;5.55;4.38;;;7.80;99.90;;;;;;4926468;29;20214;-73
2024/03/12 08:01:45;;;;;;;7.45;5.93;;;8.00;99.90;;;;;;4929028;29;20277;-73
2024/03/12 08:04:12;;;;;;;5.40;4.90;;;8.10;99.90;;;;;;4917134;29;20215;-72
2024/03/12 08:06:41;;;;;;;4.78;3.70;;;8.30;99.90;;;;;;4916461;29;20217;-73
2024/03/12 08:09:08;;;;;;;3.22;3.03;;;8.40;99.90;;;;;;4905476;29;20210;-72
2024/03/12 08:11:36;;;;;;;5.10;4.72;;;8.50;99.90;;;;;;4904548;29;20230;-73
2024/03/12 08:14:03;;;;;;;4.57;4.18;;;8.60;99.90;;;;;;4910389;29;20210;-72
2024/03/12 08:16:30;;;;;;;7.40;4.80;;;8.60;99.90;;;;;;4907549;29;20212;-73
2024/03/12 08:18:58;;;;;;;8.25;6.18;;;8.70;99.90;;;;;;4908747;29;20212;-73
2024/03/12 08:21:27;;;;;;;5.82;4.82;;;8.80;99.90;;;;;;4910867;29;20752;-72
2024/03/12 08:23:56;;;;;;;4.40;4.07;;;8.90;99.90;;;;;;4910920;29;20696;-72
2024/03/12 08:26:22;;;;;;;5.53;4.63;;;8.90;99.90;;;;;;4919365;29;20265;-72
2024/03/12 08:28:51;;;;;;;3.25;3.05;;;9.00;99.90;;;;;;4903110;29;21048;-73
2024/03/12 08:31:19;;;;;;;4.40;4.10;;;9.10;99.90;;;;;;4908138;29;20231;-73
2024/03/12 08:33:45;;;;;;;4.07;3.72;;;9.20;99.90;;;;;;4913811;29;20218;-71
2024/03/12 08:36:13;;;;;;;4.53;3.95;;;9.30;99.90;;;;;;4908457;29;20215;-71
2024/03/12 08:38:40;;;;;;;3.50;3.30;;;9.40;99.90;;;;;;4909856;29;20696;-72
2024/03/12 08:41:09;;;;;;;3.03;2.63;;;9.40;99.90;;;;;;4911941;29;20490;-72
2024/03/12 08:43:37;;;;;;;2.63;2.60;;;9.50;99.90;;;;;;4907596;29;20995;-72
2024/03/12 08:46:05;;;;;;;6.20;4.27;;;9.60;99.90;;;;;;4907038;29;20523;-73
2024/03/12 08:48:34;;;;;;;4.87;3.13;;;9.60;99.90;;;;;;4907479;29;20482;-71
2024/03/12 08:51:02;;;;;;;3.93;3.50;;;9.70;99.90;;;;;;4911221;29;20509;-72
2024/03/12 08:53:29;;;;;;;3.67;3.43;;;9.70;99.90;;;;;;4914139;29;20481;-72
2024/03/12 08:55:57;;;;;;;3.80;3.50;;;9.80;99.90;;;;;;4914359;29;20467;-72
2024/03/12 08:58:25;;;;;;;3.23;2.83;;;9.80;99.90;;;;;;4916672;29;20462;-73
2024/03/12 09:00:52;;;;;;;5.00;3.70;;;9.80;99.90;;;;;;4913771;29;20502;-72
2024/03/12 09:03:18;;;;;;;4.00;3.33;;;9.90;99.90;;;;;;4913044;29;20531;-72
2024/03/12 09:05:45;;;;;;;4.88;4.38;;;9.90;99.90;;;;;;4908089;29;20482;-71
2024/03/12 09:08:18;;;;;;;3.87;3.57;;;10.00;99.90;;;;;;4904004;29;20218;-72
2024/03/12 09:10:47;;;;;;;3.93;3.43;;;10.00;99.90;;;;;;4908304;29;20525;-71
2024/03/12 09:13:19;;;;;;;3.60;3.30;;;10.10;99.90;;;;;;4912847;29;20510;-72
2024/03/12 09:15:53;;;;;;;4.27;3.87;;;10.10;99.90;;;;;;4911862;29;20483;-72
2024/03/12 09:18:23;;;;;;;3.73;3.43;;;10.10;99.90;;;;;;4915017;29;20545;-72
2024/03/12 09:20:54;;;;;;;3.93;3.63;;;10.10;99.90;;;;;;4907679;29;20585;-72
2024/03/12 09:23:23;;;;;;;4.82;3.58;;;10.10;99.90;;;;;;4910498;29;20482;-72
2024/03/12 09:26:03;;;;;;;5.80;3.88;;;10.10;99.90;;;;;;4912724;29;20249;-71
2024/03/12 09:28:36;;;;;;;4.00;3.50;;;10.10;99.90;;;;;;4913356;29;20225;-71
2024/03/12 09:31:08;;;;;;;5.05;4.10;;;10.00;99.90;;;;;;4913233;29;20504;-72
2024/03/12 09:33:54;;;;;;;4.73;4.10;;;9.90;99.90;;;;;;4914032;29;20577;-72
2024/03/12 09:36:29;;;;;;;6.57;4.47;;;9.80;99.90;;;;;;4908790;29;20469;-71
2024/03/12 09:39:02;;;;;;;4.68;4.32;;;9.70;99.90;;;;;;4915158;29;20212;-71
2024/03/12 09:41:34;;;;;;;4.07;3.58;;;9.70;99.90;;;;;;4913288;29;20704;-73
2024/03/12 09:44:07;;;;;;;4.10;3.65;;;9.70;99.90;;;;;;4912468;29;20219;-73
2024/03/12 09:46:39;;;;;;;4.43;4.07;;;9.70;99.90;;;;;;4913196;29;20248;-72
2024/03/12 09:49:07;;;;;;;7.65;3.85;;;9.70;99.90;;;;;;4912856;29;20288;-71
2024/03/12 09:51:34;;;;;;;4.80;3.47;;;9.70;99.90;;;;;;4915822;29;20260;-73
2024/03/12 09:54:03;;;;;;;4.60;4.20;;;9.80;99.90;;;;;;4917609;29;20237;-72
2024/03/12 09:56:32;;;;;;;5.33;4.83;;;9.80;99.90;;;;;;4917666;29;20466;-72
2024/03/12 09:58:59;;;;;;;7.18;4.40;;;9.80;99.90;;;;;;4913995;29;20893;-73
2024/03/12 10:01:26;;;;;;;8.90;5.90;;;9.80;99.90;;;;;;4909947;29;20246;-71
2024/03/12 10:03:55;;;;;;;9.30;5.83;;;9.80;99.90;;;;;;4912787;29;21198;-74
2024/03/12 10:06:23;;;;;;;9.18;5.25;;;9.80;99.90;;;;;;4911164;29;20811;-71
2024/03/12 10:08:56;;;;;;;9.93;6.78;;;9.90;99.90;;;;;;4910772;29;20214;-73
2024/03/12 10:11:23;;;;;;;9.75;6.30;;;9.90;99.90;;;;;;4912967;29;20241;-71
2024/03/12 10:13:55;;;;;;;9.20;6.05;;;9.90;99.90;;;;;;4912085;29;20218;-72
2024/03/12 10:16:24;;;;;;;6.40;5.90;;;10.00;99.90;;;;;;4911582;29;20306;-71
2024/03/12 10:19:09;;;;;;;7.43;6.63;;;10.00;99.90;;;;;;4912896;29;20502;-72
2024/03/12 10:21:36;;;;;;;10.67;6.30;;;10.00;99.90;;;;;;4915945;29;20499;-70
2024/03/12 10:24:12;;;;;;;12.20;7.60;;;10.10;99.90;;;;;;4904057;29;20500;-72
2024/03/12 10:26:40;;;;;;;14.07;7.80;;;10.20;99.90;;;;;;4911955;29;20505;-69
2024/03/12 10:29:11;;;;;;;15.50;7.63;;;10.20;99.90;;;;;;4907060;29;20475;-70
2024/03/12 10:31:43;;;;;;;6.90;5.87;;;10.30;99.90;;;;;;4908291;29;20494;-71
2024/03/12 10:34:14;;;;;;;9.07;5.93;;;10.30;99.90;;;;;;4908162;29;20503;-72
2024/03/12 10:36:43;;;;;;;10.03;6.10;;;10.30;99.90;;;;;;4915446;29;20517;-71
2024/03/12 10:39:12;;;;;;;13.57;7.33;;;10.30;99.90;;;;;;4910020;29;20475;-71
2024/03/12 10:41:39;;;;;;;9.87;7.83;;;10.30;99.90;;;;;;4913047;29;20494;-70
2024/03/12 10:44:10;;;;;;;9.03;6.00;;;10.40;99.90;;;;;;4908785;29;20489;-72
2024/03/12 10:46:39;;;;;;;7.77;6.50;;;10.40;99.90;;;;;;4911899;29;20539;-71
2024/03/12 10:49:10;;;;;;;13.57;8.70;;;10.50;99.90;;;;;;4915258;29;20980;-72
2024/03/12 10:51:40;;;;;;;10.83;7.07;;;10.60;99.90;;;;;;4908369;29;20582;-72
2024/03/12 10:54:11;;;;;;;14.50;8.10;;;10.60;99.90;;;;;;4923106;29;20601;-72
2024/03/12 10:56:39;;;;;;;11.40;7.40;;;10.70;99.90;;;;;;4908272;29;20879;-71
2024/03/12 10:59:07;;;;;;;14.80;7.67;;;10.80;99.90;;;;;;4916906;29;20554;-71
2024/03/12 11:01:36;;;;;;;13.10;8.00;;;10.80;99.90;;;;;;4916579;29;20537;-73
2024/03/12 11:04:05;;;;;;;17.47;10.80;;;10.90;99.90;;;;;;4911058;29;20490;-72
2024/03/12 11:06:36;;;;;;;21.23;10.23;;;10.90;99.90;;;;;;4912037;29;20505;-73
2024/03/12 11:09:05;;;;;;;12.60;8.00;;;11.00;99.90;;;;;;4910359;29;20475;-72
2024/03/12 11:11:33;;;;;;;14.03;8.43;;;11.00;99.90;;;;;;4912972;29;20574;-72
2024/03/12 11:14:02;;;;;;;13.67;7.93;;;11.00;99.90;;;;;;4912330;29;20467;-71
2024/03/12 11:16:31;;;;;;;14.17;8.80;;;11.00;99.90;;;;;;4914139;29;20845;-71
2024/03/12 11:19:16;;;;;;;14.30;8.20;;;11.10;99.90;;;;;;4912368;29;20478;-72
2024/03/12 11:21:43;;;;;;;14.30;8.23;;;11.10;99.90;;;;;;4914566;29;20489;-71
2024/03/12 11:24:11;;;;;;;16.43;8.80;;;11.20;99.90;;;;;;4923671;29;20468;-71
2024/03/12 11:26:41;;;;;;;17.97;8.90;;;11.30;99.90;;;;;;4926758;29;20860;-72
2024/03/12 11:29:11;;;;;;;14.97;8.40;;;11.30;99.90;;;;;;4916528;29;20472;-71
2024/03/12 11:31:39;;;;;;;15.20;8.80;;;11.40;99.90;;;;;;4915642;29;20570;-72
2024/03/12 11:34:06;;;;;;;16.00;8.70;;;11.40;99.90;;;;;;4915388;29;20486;-71
2024/03/12 11:36:44;;;;;;;19.40;11.30;;;11.50;99.90;;;;;;4913959;29;20467;-72
2024/03/12 11:39:29;;;;;;;14.23;9.07;;;11.60;99.90;;;;;;4913675;29;20479;-72
2024/03/12 11:42:15;;;;;;;15.00;9.43;;;11.60;99.90;;;;;;4917314;29;20505;-72
2024/03/12 11:44:50;;;;;;;16.70;9.80;;;11.70;99.90;;;;;;4917031;29;21119;-73
2024/03/12 11:47:31;;;;;;;17.40;8.33;;;11.80;99.90;;;;;;4920046;29;20486;-73
2024/03/12 11:49:57;;;;;;;17.83;8.73;;;11.90;99.90;;;;;;4922119;29;20462;-72
2024/03/12 11:52:27;;;;;;;15.50;9.20;;;11.90;99.90;;;;;;4916018;29;20485;-71
2024/03/12 11:54:55;;;;;;;15.30;9.70;;;12.10;99.90;;;;;;4924383;29;20510;-72
2024/03/12 11:57:26;;;;;;;15.77;9.27;;;12.20;99.90;;;;;;4927823;29;20868;-70
2024/03/12 11:59:54;;;;;;;16.63;10.53;;;12.30;99.90;;;;;;4918669;29;20459;-72
2024/03/12 12:02:23;;;;;;;11.30;9.77;;;12.40;99.90;;;;;;4913293;29;20498;-71
2024/03/12 12:04:51;;;;;;;13.80;8.03;;;12.50;99.90;;;;;;4908679;29;20478;-71
2024/03/12 12:07:19;;;;;;;15.10;9.60;;;12.50;99.90;;;;;;4927529;29;20490;-72
2024/03/12 12:09:46;;;;;;;15.23;10.63;;;12.50;99.90;;;;;;4910498;29;20473;-71
2024/03/12 12:12:15;;;;;;;17.77;9.63;;;12.50;99.90;;;;;;4916465;29;20489;-71
2024/03/12 12:14:43;;;;;;;19.40;8.70;;;12.50;99.90;;;;;;4909090;29;20481;-71
2024/03/12 12:17:11;;;;;;;15.80;9.53;;;12.60;99.90;;;;;;4914689;29;20459;-70
2024/03/12 12:19:39;;;;;;;17.83;9.00;;;12.70;99.90;;;;;;4919350;29;20459;-72
2024/03/12 12:22:07;;;;;;;13.57;9.67;;;12.80;99.90;;;;;;4915102;29;20499;-71
2024/03/12 12:24:37;;;;;;;12.97;8.63;;;12.80;99.90;;;;;;4919744;29;20462;-72
2024/03/12 12:27:04;;;;;;;12.37;8.63;;;12.90;99.90;;;;;;4927517;29;20489;-72
2024/03/12 12:30:11;;;;;;;11.93;8.00;;;12.90;99.90;;;;;;5155785;27;20533;-72
2024/03/12 12:32:38;;;;;;;12.13;8.10;;;12.90;99.90;;;;;;5130229;27;20465;-69
2024/03/12 12:35:10;;;;;;;14.07;8.80;;;12.90;99.90;;;;;;5128946;28;20480;-71
2024/03/12 12:37:37;;;;;;;19.30;14.80;;;12.80;99.90;;;;;;5129263;27;20753;-70
2024/03/12 12:40:07;;;;;;;18.07;10.63;;;12.80;99.90;;;;;;5127512;28;20463;-71
2024/03/12 12:42:34;;;;;;;21.87;12.83;;;12.80;99.90;;;;;;5127372;27;20982;-71
2024/03/12 12:45:04;;;;;;;16.67;8.50;;;12.70;99.90;;;;;;5127810;27;20492;-69
2024/03/12 12:47:33;;;;;;;13.73;9.77;;;12.60;99.90;;;;;;5129193;27;21123;-70
2024/03/12 12:50:00;;;;;;;12.93;8.67;;;12.50;99.90;;;;;;5126541;27;21014;-72
2024/03/12 12:52:27;;;;;;;11.07;7.80;;;12.40;99.90;;;;;;5128598;27;20461;-70
2024/03/12 12:54:57;;;;;;;14.13;10.00;;;12.30;99.90;;;;;;5128282;27;20468;-71
2024/03/12 12:57:27;;;;;;;13.90;9.20;;;12.30;99.90;;;;;;5128999;27;20543;-70
2024/03/12 12:59:55;;;;;;;14.60;7.83;;;12.20;99.90;;;;;;5122857;27;20986;-71
2024/03/12 13:02:23;;;;;;;10.47;7.20;;;12.10;99.90;;;;;;5127712;27;20465;-70
2024/03/12 13:04:57;;;;;;;13.57;8.20;;;11.90;99.90;;;;;;5128130;27;20496;-70
2024/03/12 13:07:29;;;;;;;12.00;6.80;;;11.90;99.90;;;;;;5125435;27;20452;-70
2024/03/12 13:09:56;;;;;;;13.37;7.83;;;11.80;99.90;;;;;;5124944;27;20518;-71
2024/03/12 13:12:22;;;;;;;12.83;7.57;;;11.70;99.90;;;;;;5128414;27;20538;-70
2024/03/12 13:14:51;;;;;;;15.10;7.50;;;11.60;99.90;;;;;;5127442;28;20526;-70
2024/03/12 13:17:18;;;;;;;16.43;9.80;;;11.50;99.90;;;;;;5120801;28;20449;-70
2024/03/12 13:19:46;;;;;;;12.77;7.63;;;11.50;99.90;;;;;;5128446;27;20465;-70
2024/03/12 13:22:14;;;;;;;12.80;7.30;;;11.50;99.90;;;;;;5129513;28;20532;-71
2024/03/12 13:24:43;;;;;;;13.17;8.13;;;11.50;99.90;;;;;;5128374;27;21088;-73
2024/03/12 13:27:10;;;;;;;18.37;9.67;;;11.60;99.90;;;;;;5128915;27;20456;-73
2024/03/12 13:29:38;;;;;;;15.67;8.53;;;11.50;99.90;;;;;;5127684;27;20516;-72
2024/03/12 13:32:06;;;;;;;21.10;11.80;;;11.50;99.90;;;;;;5126858;28;20499;-70
2024/03/12 13:34:33;;;;;;;15.43;9.53;;;11.50;99.90;;;;;;5127263;27;20851;-71
2024/03/12 13:37:00;;;;;;;13.93;8.50;;;11.50;99.90;;;;;;5125133;27;20456;-71
2024/03/12 13:39:29;;;;;;;15.43;8.47;;;11.50;99.90;;;;;;5125780;27;20468;-70
2024/03/12 13:41:56;;;;;;;12.47;7.77;;;11.40;99.90;;;;;;5113787;27;20524;-71
2024/03/12 13:44:23;;;;;;;12.47;8.20;;;11.40;99.90;;;;;;5113881;28;20486;-71
2024/03/12 13:46:50;;;;;;;10.63;8.33;;;11.40;99.90;;;;;;5110154;27;20668;-71
2024/03/12 13:49:17;;;;;;;15.33;7.90;;;11.30;99.90;;;;;;5111985;28;20538;-71
2024/03/12 13:51:45;;;;;;;15.10;8.57;;;11.20;99.90;;;;;;5113887;28;20480;-72
2024/03/12 13:54:12;;;;;;;13.10;8.43;;;11.20;99.90;;;;;;5113996;28;20501;-71
2024/03/12 13:56:40;;;;;;;14.37;8.20;;;11.10;99.90;;;;;;5114417;28;20491;-72
2024/03/12 13:59:07;;;;;;;10.50;7.63;;;11.10;99.90;;;;;;5112189;28;20944;-72
2024/03/12 14:01:35;;;;;;;14.57;8.40;;;11.10;99.90;;;;;;5115928;27;20481;-71
2024/03/12 14:04:02;;;;;;;13.83;8.43;;;11.10;99.90;;;;;;5112190;28;20474;-71
2024/03/12 14:06:30;;;;;;;14.70;8.50;;;11.10;99.90;;;;;;5112255;28;20518;-71
2024/03/12 14:08:57;;;;;;;18.10;9.30;;;11.10;99.90;;;;;;5113123;27;20576;-71
2024/03/12 14:11:25;;;;;;;16.87;8.97;;;11.10;99.90;;;;;;5113144;27;20461;-71
2024/03/12 14:13:55;;;;;;;14.23;9.60;;;11.00;99.90;;;;;;5112634;27;20584;-70
2024/03/12 14:16:22;;;;;;;15.80;8.90;;;11.00;99.90;;;;;;5115266;27;20483;-71
2024/03/12 14:18:49;;;;;;;19.17;9.93;;;11.00;99.90;;;;;;5112936;28;20594;-72
2024/03/12 14:21:16;;;;;;;14.80;9.77;;;11.00;99.90;;;;;;5112945;28;20497;-71
2024/03/12 14:23:43;;;;;;;16.03;8.57;;;11.00;99.90;;;;;;5113132;28;20528;-71
2024/03/12 14:26:10;;;;;;;16.60;9.00;;;11.10;99.90;;;;;;5112293;28;20743;-71
2024/03/12 14:28:37;;;;;;;14.33;9.43;;;11.30;99.90;;;;;;5113928;27;20561;-72
2024/03/12 14:31:05;;;;;;;16.27;9.20;;;11.50;99.90;;;;;;5112948;28;20457;-70
2024/03/12 14:33:32;;;;;;;15.27;9.77;;;11.60;99.90;;;;;;5111973;28;20901;-71
2024/03/12 14:35:59;;;;;;;15.10;10.03;;;11.60;99.90;;;;;;5110378;28;20484;-71
2024/03/12 14:38:26;;;;;;;10.90;8.60;;;11.70;99.90;;;;;;5107976;27;20553;-70
2024/03/12 14:40:55;;;;;;;19.13;9.57;;;11.80;99.90;;;;;;5113457;27;20488;-70
2024/03/12 14:43:23;;;;;;;15.07;8.90;;;11.90;99.90;;;;;;5111906;28;20481;-71
2024/03/12 14:45:51;;;;;;;18.33;9.60;;;11.80;99.90;;;;;;5113660;27;20473;-68
2024/03/12 14:48:20;;;;;;;14.40;9.20;;;11.80;99.90;;;;;;5110267;28;20553;-71
2024/03/12 14:50:47;;;;;;;18.03;8.97;;;11.80;99.90;;;;;;5111464;28;20572;-70
2024/03/12 14:53:14;;;;;;;15.67;7.97;;;11.80;99.90;;;;;;5101350;27;21056;-71
2024/03/12 14:55:41;;;;;;;14.90;9.03;;;11.80;99.90;;;;;;5111354;27;20548;-71
2024/03/12 14:58:08;;;;;;;9.87;7.40;;;11.80;99.90;;;;;;5111883;27;20485;-71
2024/03/12 15:00:38;;;;;;;17.93;11.27;;;11.80;99.90;;;;;;5107341;28;20461;-71
2024/03/12 15:03:06;;;;;;;15.33;8.70;;;11.80;99.90;;;;;;5106877;27;20485;-71
2024/03/12 15:05:35;;;;;;;10.20;7.67;;;11.70;99.90;;;;;;5109052;28;20786;-72
2024/03/12 15:08:04;;;;;;;14.60;10.80;;;11.70;99.90;;;;;;5107603;28;20449;-72
2024/03/12 15:10:31;;;;;;;19.73;12.00;;;11.60;99.90;;;;;;5106923;27;20490;-71
2024/03/12 15:12:58;;;;;;;18.50;9.10;;;11.50;99.90;;;;;;5110444;27;20523;-70
2024/03/12 15:15:26;;;;;;;14.07;10.43;;;11.50;99.90;;;;;;5103437;28;20465;-71
2024/03/12 15:17:55;;;;;;;21.60;12.87;;;11.40;99.90;;;;;;5111627;27;20467;-72
2024/03/12 15:20:24;;;;;;;14.93;9.57;;;11.40;99.90;;;;;;5108220;27;20542;-70
2024/03/12 15:22:52;;;;;;;10.57;9.00;;;11.40;99.90;;;;;;5107637;27;20469;-71
2024/03/12 15:25:19;;;;;;;13.23;8.80;;;11.30;99.90;;;;;;5105745;27;20487;-70
2024/03/12 15:27:48;;;;;;;18.60;10.00;;;11.30;99.90;;;;;;5109205;27;20782;-71
2024/03/12 15:30:16;;;;;;;14.77;9.93;;;11.30;99.90;;;;;;5110876;28;20638;-71
2024/03/12 15:32:43;;;;;;;13.80;8.33;;;11.30;99.90;;;;;;5107260;27;20965;-71
2024/03/12 15:35:10;;;;;;;16.57;10.20;;;11.30;99.90;;;;;;5110583;28;20458;-69
2024/03/12 15:37:38;;;;;;;16.17;9.77;;;11.20;99.90;;;;;;5113973;27;20465;-70
2024/03/12 15:40:08;;;;;;;18.67;11.27;;;11.20;99.90;;;;;;5110212;27;20878;-70
2024/03/12 15:42:35;;;;;;;20.87;10.57;;;11.20;99.90;;;;;;5110104;27;20550;-70
2024/03/12 15:45:03;;;;;;;15.77;11.20;;;11.20;99.90;;;;;;5111087;27;20540;-70
2024/03/12 15:47:33;;;;;;;23.57;11.70;;;11.20;99.90;;;;;;5109497;27;20680;-70
2024/03/12 15:50:00;;;;;;;20.37;11.17;;;11.10;99.90;;;;;;5105376;28;20492;-74
2024/03/12 15:52:27;;;;;;;25.60;11.30;;;11.10;99.90;;;;;;5112848;28;20941;-73
2024/03/12 15:54:55;;;;;;;21.38;13.57;;;11.20;99.90;;;;;;5107154;28;20558;-79
2024/03/12 15:57:23;;;;;;;18.33;12.13;;;11.20;99.90;;;;;;5110372;28;20299;-73
2024/03/12 15:59:51;;;;;;;21.77;12.80;;;11.10;99.90;;;;;;5111174;28;20515;-73
2024/03/12 16:02:18;;;;;;;20.17;12.43;;;11.10;99.90;;;;;;5111107;28;20461;-83
2024/03/12 16:04:44;;;;;;;25.50;12.30;;;11.00;99.90;;;;;;5101258;28;20516;-70
2024/03/12 16:07:10;;;;;;;16.73;11.50;;;11.00;99.90;;;;;;5101896;28;20546;-70
2024/03/12 16:09:38;;;;;;;17.30;9.77;;;11.00;99.90;;;;;;5101239;28;20516;-72
2024/03/12 16:12:06;;;;;;;20.03;10.50;;;11.00;99.90;;;;;;5111304;28;20469;-71
2024/03/12 16:14:34;;;;;;;16.97;11.10;;;10.90;99.90;;;;;;5110383;28;20544;-71
2024/03/12 16:17:05;;;;;;;21.33;13.17;;;10.90;99.90;;;;;;5109423;28;20490;-70
2024/03/12 16:19:33;;;;;;;17.70;10.60;;;10.80;99.90;;;;;;5108420;28;20472;-70
2024/03/12 16:22:01;;;;;;;19.77;11.20;;;10.70;99.90;;;;;;5108641;28;20977;-70
2024/03/12 16:24:29;;;;;;;19.93;11.10;;;10.70;99.90;;;;;;5111053;28;21011;-71
2024/03/12 16:26:56;;;;;;;18.83;10.90;;;10.60;99.90;;;;;;5108807;28;20469;-71
2024/03/12 16:29:23;;;;;;;17.20;10.77;;;10.50;99.90;;;;;;5116274;28;20495;-70
2024/03/12 16:31:52;;;;;;;20.87;12.17;;;10.50;99.90;;;;;;5111813;28;20612;-71
2024/03/12 16:34:19;;;;;;;23.53;12.80;;;10.40;99.90;;;;;;5109119;28;20608;-70
2024/03/12 16:36:46;;;;;;;20.17;11.52;;;10.40;99.90;;;;;;5102270;28;20499;-71
2024/03/12 16:39:13;;;;;;;19.90;10.95;;;10.40;99.90;;;;;;5101707;28;20209;-71
2024/03/12 16:41:40;;;;;;;23.02;11.00;;;10.30;99.90;;;;;;5108676;28;20214;-71
2024/03/12 16:44:07;;;;;;;26.55;12.30;;;10.20;99.90;;;;;;5109742;28;20315;-71
2024/03/12 16:46:34;;;;;;;17.15;10.25;;;10.20;99.90;;;;;;5108625;28;20196;-72
2024/03/12 16:49:03;;;;;;;20.83;11.38;;;10.10;99.90;;;;;;5105691;28;20263;-71
2024/03/12 16:51:32;;;;;;;21.30;11.13;;;10.10;99.90;;;;;;5105084;28;20203;-71
2024/03/12 16:54:00;;;;;;;21.48;12.73;;;10.00;99.90;;;;;;5107110;28;20495;-70
2024/03/12 16:56:27;;;;;;;19.10;11.30;;;10.00;99.90;;;;;;5108272;28;20211;-71
2024/03/12 16:58:56;;;;;;;23.15;10.20;;;9.90;99.90;;;;;;5107569;28;20214;-71
2024/03/12 17:01:24;;;;;;;20.02;11.60;;;9.90;99.90;;;;;;5104099;28;20215;-71
2024/03/12 17:03:51;;;;;;;20.92;12.35;;;9.90;99.90;;;;;;5108595;28;20232;-71
2024/03/12 17:06:21;;;;;;;21.60;12.90;;;9.90;99.90;;;;;;5109574;28;20293;-73
2024/03/12 17:08:49;;;;;;;22.92;11.27;;;9.90;99.90;;;;;;5098222;28;20651;-74
2024/03/12 17:11:16;;;;;;;25.48;12.90;;;9.80;99.90;;;;;;5106222;28;20280;-72
2024/03/12 17:13:43;;;;;;;21.17;12.30;;;9.80;99.90;;;;;;5111203;28;20258;-77
2024/03/12 17:16:13;;;;;;;23.08;12.43;;;9.70;99.90;;;;;;5114840;28;20210;-73
2024/03/12 17:18:42;;;;;;;20.48;12.48;;;9.80;99.90;;;;;;5119782;27;20650;-74
2024/03/12 17:21:09;;;;;;;30.55;16.80;;;9.70;99.90;;;;;;5108689;28;20210;-73
2024/03/12 17:23:38;;;;;;;19.13;11.77;;;9.70;99.90;;;;;;5113531;28;20309;-74
2024/03/12 17:26:06;;;;;;;19.50;12.05;;;9.60;99.90;;;;;;5114813;28;20248;-74
2024/03/12 17:28:33;;;;;;;20.52;11.57;;;9.60;99.90;;;;;;5114050;28;20258;-73
2024/03/12 17:31:02;;;;;;;26.58;10.55;;;9.60;99.90;;;;;;5114830;28;20254;-73
2024/03/12 17:33:30;;;;;;;19.60;10.85;;;9.50;99.90;;;;;;5112495;28;20728;-72
2024/03/12 17:35:57;;;;;;;20.00;10.95;;;9.50;99.90;;;;;;5114179;28;20211;-73
2024/03/12 17:38:28;;;;;;;23.83;13.10;;;9.50;99.90;;;;;;5115044;28;20239;-72
2024/03/12 17:40:58;;;;;;;32.22;14.38;;;9.50;99.90;;;;;;5115156;28;20213;-72
2024/03/12 17:43:26;;;;;;;29.70;13.30;;;9.50;99.90;;;;;;5115377;28;20230;-73
2024/03/12 17:45:53;;;;;;;20.33;12.38;;;9.60;99.90;;;;;;5115308;27;20206;-74
2024/03/12 17:48:22;;;;;;;25.77;12.73;;;9.50;99.90;;;;;;5115268;28;20291;-73
2024/03/12 17:50:49;;;;;;;23.25;11.68;;;9.50;99.90;;;;;;5112785;27;20223;-72
2024/03/12 17:53:20;;;;;;;27.83;11.82;;;9.50;99.90;;;;;;5111926;28;20224;-73
2024/03/12 17:55:49;;;;;;;27.50;14.63;;;9.40;99.90;;;;;;5114628;28;20211;-71